sensor_id;sensor_type;location;lat;lon;timestamp;temperature;humidity
33508;DHT22;25568;37.410;-122.096;2023-02-01T00:01:42;17.20;62.00
33508;DHT22;25568;37.410;-122.096;2023-02-01T00:04:11;17.30;63.50
33508;DHT22;25568;37.410;-122.096;2023-02-01T00:06:40;17.30;63.50
33508;DHT22;25568;37.410;-122.096;2023-02-01T00:09:09;17.30;63.60
33508;DHT22;25568;37.410;-122.096;2023-02-01T00:11:39;17.30;62.00
33508;DHT22;25568;37.410;-122.096;2023-02-01T00:14:08;17.30;62.30
33508;DHT22;25568;37.410;-122.096;2023-02-01T00:16:37;17.30;63.10
33508;DHT22;25568;37.410;-122.096;2023-02-01T00:19:10;17.30;63.70
33508;DHT22;25568;37.410;-122.096;2023-02-01T00:21:39;17.30;63.60
33508;DHT22;25568;37.410;-122.096;2023-02-01T00:24:09;17.40;64.30
33508;DHT22;25568;37.410;-122.096;2023-02-01T00:26:42;17.40;63.00
33508;DHT22;25568;37.410;-122.096;2023-02-01T00:29:14;17.40;63.50
33508;DHT22;25568;37.410;-122.096;2023-02-01T00:31:49;17.40;63.60
33508;DHT22;25568;37.410;-122.096;2023-02-01T00:34:18;17.40;63.80
33508;DHT22;25568;37.410;-122.096;2023-02-01T00:36:48;17.40;64.10
33508;DHT22;25568;37.410;-122.096;2023-02-01T00:39:17;17.40;64.10
33508;DHT22;25568;37.410;-122.096;2023-02-01T00:41:47;17.40;62.50
33508;DHT22;25568;37.410;-122.096;2023-02-01T00:44:17;17.40;63.50
33508;DHT22;25568;37.410;-122.096;2023-02-01T00:46:46;17.40;62.00
33508;DHT22;25568;37.410;-122.096;2023-02-01T00:49:17;17.50;63.10
33508;DHT22;25568;37.410;-122.096;2023-02-01T00:51:46;17.50;62.20
33508;DHT22;25568;37.410;-122.096;2023-02-01T00:54:15;17.50;63.60
33508;DHT22;25568;37.410;-122.096;2023-02-01T00:56:46;17.50;63.00
33508;DHT22;25568;37.410;-122.096;2023-02-01T00:59:15;17.50;63.40
33508;DHT22;25568;37.410;-122.096;2023-02-01T01:01:44;17.50;63.80
33508;DHT22;25568;37.410;-122.096;2023-02-01T01:04:13;17.50;63.50
33508;DHT22;25568;37.410;-122.096;2023-02-01T01:06:42;17.50;63.30
33508;DHT22;25568;37.410;-122.096;2023-02-01T01:09:14;17.60;63.10
33508;DHT22;25568;37.410;-122.096;2023-02-01T01:11:43;17.50;63.50
33508;DHT22;25568;37.410;-122.096;2023-02-01T01:14:13;17.50;63.60
33508;DHT22;25568;37.410;-122.096;2023-02-01T01:16:43;17.60;63.80
33508;DHT22;25568;37.410;-122.096;2023-02-01T01:19:12;17.60;64.00
33508;DHT22;25568;37.410;-122.096;2023-02-01T01:21:41;17.60;63.60
33508;DHT22;25568;37.410;-122.096;2023-02-01T01:24:10;17.50;61.50
33508;DHT22;25568;37.410;-122.096;2023-02-01T01:26:39;17.50;63.50
33508;DHT22;25568;37.410;-122.096;2023-02-01T01:29:09;17.50;64.10
33508;DHT22;25568;37.410;-122.096;2023-02-01T01:31:40;17.60;64.30
33508;DHT22;25568;37.410;-122.096;2023-02-01T01:34:09;17.60;63.30
33508;DHT22;25568;37.410;-122.096;2023-02-01T01:36:38;17.60;61.50
33508;DHT22;25568;37.410;-122.096;2023-02-01T01:39:07;17.50;62.10
33508;DHT22;25568;37.410;-122.096;2023-02-01T01:41:39;17.50;62.60
33508;DHT22;25568;37.410;-122.096;2023-02-01T01:47:17;17.50;63.10
33508;DHT22;25568;37.410;-122.096;2023-02-01T01:49:46;17.60;63.30
33508;DHT22;25568;37.410;-122.096;2023-02-01T01:52:15;17.50;63.60
33508;DHT22;25568;37.410;-122.096;2023-02-01T01:54:46;17.60;63.80
33508;DHT22;25568;37.410;-122.096;2023-02-01T01:57:19;17.60;64.10
33508;DHT22;25568;37.410;-122.096;2023-02-01T01:59:53;17.50;64.00
33508;DHT22;25568;37.410;-122.096;2023-02-01T02:02:25;17.50;64.20
33508;DHT22;25568;37.410;-122.096;2023-02-01T02:04:54;17.50;64.30
33508;DHT22;25568;37.410;-122.096;2023-02-01T02:07:26;17.60;64.50
33508;DHT22;25568;37.410;-122.096;2023-02-01T02:09:57;17.50;64.40
33508;DHT22;25568;37.410;-122.096;2023-02-01T02:12:26;17.60;64.60
33508;DHT22;25568;37.410;-122.096;2023-02-01T02:14:55;17.60;64.60
33508;DHT22;25568;37.410;-122.096;2023-02-01T02:17:34;17.50;64.70
33508;DHT22;25568;37.410;-122.096;2023-02-01T02:23:36;17.60;65.00
33508;DHT22;25568;37.410;-122.096;2023-02-01T02:26:32;17.50;64.90
33508;DHT22;25568;37.410;-122.096;2023-02-01T02:29:26;17.60;65.00
33508;DHT22;25568;37.410;-122.096;2023-02-01T02:35:12;17.60;64.90
33508;DHT22;25568;37.410;-122.096;2023-02-01T02:37:53;17.50;64.60
33508;DHT22;25568;37.410;-122.096;2023-02-01T02:40:31;17.60;64.30
33508;DHT22;25568;37.410;-122.096;2023-02-01T02:43:07;17.50;64.00
33508;DHT22;25568;37.410;-122.096;2023-02-01T02:46:00;17.50;64.00
33508;DHT22;25568;37.410;-122.096;2023-02-01T02:49:00;17.60;63.80
33508;DHT22;25568;37.410;-122.096;2023-02-01T02:51:36;17.50;63.60
33508;DHT22;25568;37.410;-122.096;2023-02-01T02:54:26;17.50;63.70
33508;DHT22;25568;37.410;-122.096;2023-02-01T02:57:20;17.50;63.70
33508;DHT22;25568;37.410;-122.096;2023-02-01T03:00:10;17.50;63.80
33508;DHT22;25568;37.410;-122.096;2023-02-01T03:02:56;17.50;64.00
33508;DHT22;25568;37.410;-122.096;2023-02-01T03:05:43;17.50;64.10
33508;DHT22;25568;37.410;-122.096;2023-02-01T03:08:16;17.50;64.10
33508;DHT22;25568;37.410;-122.096;2023-02-01T03:10:52;17.50;64.00
33508;DHT22;25568;37.410;-122.096;2023-02-01T03:13:31;17.50;64.20
33508;DHT22;25568;37.410;-122.096;2023-02-01T03:16:04;17.50;64.30
33508;DHT22;25568;37.410;-122.096;2023-02-01T03:18:39;17.50;64.50
33508;DHT22;25568;37.410;-122.096;2023-02-01T03:21:14;17.50;64.50
33508;DHT22;25568;37.410;-122.096;2023-02-01T03:23:48;17.50;64.60
33508;DHT22;25568;37.410;-122.096;2023-02-01T03:26:19;17.50;64.60
33508;DHT22;25568;37.410;-122.096;2023-02-01T03:28:57;17.40;64.70
33508;DHT22;25568;37.410;-122.096;2023-02-01T03:31:29;17.40;64.80
33508;DHT22;25568;37.410;-122.096;2023-02-01T03:33:58;17.40;64.80
33508;DHT22;25568;37.410;-122.096;2023-02-01T03:36:31;17.40;64.80
33508;DHT22;25568;37.410;-122.096;2023-02-01T03:39:09;17.40;64.90
33508;DHT22;25568;37.410;-122.096;2023-02-01T03:41:41;17.40;64.90
33508;DHT22;25568;37.410;-122.096;2023-02-01T03:44:15;17.40;65.00
33508;DHT22;25568;37.410;-122.096;2023-02-01T03:46:48;17.40;65.00
33508;DHT22;25568;37.410;-122.096;2023-02-01T03:49:22;17.30;65.00
33508;DHT22;25568;37.410;-122.096;2023-02-01T03:51:52;17.40;65.30
33508;DHT22;25568;37.410;-122.096;2023-02-01T03:54:26;17.30;65.30
33508;DHT22;25568;37.410;-122.096;2023-02-01T03:56:58;17.30;65.40
33508;DHT22;25568;37.410;-122.096;2023-02-01T03:59:28;17.30;65.30
33508;DHT22;25568;37.410;-122.096;2023-02-01T04:01:56;17.30;65.40
33508;DHT22;25568;37.410;-122.096;2023-02-01T04:04:25;17.30;65.70
33508;DHT22;25568;37.410;-122.096;2023-02-01T04:06:54;17.30;65.40
33508;DHT22;25568;37.410;-122.096;2023-02-01T04:09:25;17.30;65.40
33508;DHT22;25568;37.410;-122.096;2023-02-01T04:11:54;17.30;65.30
33508;DHT22;25568;37.410;-122.096;2023-02-01T04:14:23;17.20;65.30
33508;DHT22;25568;37.410;-122.096;2023-02-01T04:16:52;17.20;65.30
33508;DHT22;25568;37.410;-122.096;2023-02-01T04:19:21;17.20;65.30
33508;DHT22;25568;37.410;-122.096;2023-02-01T04:21:50;17.20;65.30
33508;DHT22;25568;37.410;-122.096;2023-02-01T04:24:19;17.20;65.30
33508;DHT22;25568;37.410;-122.096;2023-02-01T04:26:50;17.20;65.30
33508;DHT22;25568;37.410;-122.096;2023-02-01T04:29:18;17.10;65.30
33508;DHT22;25568;37.410;-122.096;2023-02-01T04:31:48;17.10;65.70
33508;DHT22;25568;37.410;-122.096;2023-02-01T04:34:17;17.10;65.80
33508;DHT22;25568;37.410;-122.096;2023-02-01T04:36:46;17.10;65.90
33508;DHT22;25568;37.410;-122.096;2023-02-01T04:39:15;17.10;65.80
33508;DHT22;25568;37.410;-122.096;2023-02-01T04:41:44;17.10;65.90
33508;DHT22;25568;37.410;-122.096;2023-02-01T04:44:16;17.10;65.90
33508;DHT22;25568;37.410;-122.096;2023-02-01T04:46:47;17.10;66.00
33508;DHT22;25568;37.410;-122.096;2023-02-01T04:49:16;17.10;66.10
33508;DHT22;25568;37.410;-122.096;2023-02-01T04:51:45;17.00;66.30
33508;DHT22;25568;37.410;-122.096;2023-02-01T04:54:14;17.00;66.40
33508;DHT22;25568;37.410;-122.096;2023-02-01T04:56:43;17.00;66.40
33508;DHT22;25568;37.410;-122.096;2023-02-01T04:59:12;17.00;66.40
33508;DHT22;25568;37.410;-122.096;2023-02-01T05:01:42;17.00;66.70
33508;DHT22;25568;37.410;-122.096;2023-02-01T05:04:11;17.00;66.60
33508;DHT22;25568;37.410;-122.096;2023-02-01T05:06:40;17.00;66.90
33508;DHT22;25568;37.410;-122.096;2023-02-01T05:09:10;17.10;67.00
33508;DHT22;25568;37.410;-122.096;2023-02-01T05:11:38;17.10;67.10
33508;DHT22;25568;37.410;-122.096;2023-02-01T05:14:24;17.10;67.10
33508;DHT22;25568;37.410;-122.096;2023-02-01T05:16:55;17.10;67.20
33508;DHT22;25568;37.410;-122.096;2023-02-01T05:19:24;17.10;67.00
33508;DHT22;25568;37.410;-122.096;2023-02-01T05:21:52;17.10;67.20
33508;DHT22;25568;37.410;-122.096;2023-02-01T05:24:21;17.00;67.10
33508;DHT22;25568;37.410;-122.096;2023-02-01T05:26:50;17.10;67.10
33508;DHT22;25568;37.410;-122.096;2023-02-01T05:29:19;17.00;67.00
33508;DHT22;25568;37.410;-122.096;2023-02-01T05:31:51;17.00;66.90
33508;DHT22;25568;37.410;-122.096;2023-02-01T05:34:21;17.00;66.90
33508;DHT22;25568;37.410;-122.096;2023-02-01T05:36:50;17.00;66.90
33508;DHT22;25568;37.410;-122.096;2023-02-01T05:39:19;17.00;67.60
33508;DHT22;25568;37.410;-122.096;2023-02-01T05:41:48;17.00;66.90
33508;DHT22;25568;37.410;-122.096;2023-02-01T05:44:17;17.00;66.90
33508;DHT22;25568;37.410;-122.096;2023-02-01T05:46:46;17.00;66.80
33508;DHT22;25568;37.410;-122.096;2023-02-01T05:49:15;17.00;66.90
33508;DHT22;25568;37.410;-122.096;2023-02-01T05:51:45;17.00;66.90
33508;DHT22;25568;37.410;-122.096;2023-02-01T05:54:14;17.00;67.10
33508;DHT22;25568;37.410;-122.096;2023-02-01T05:56:43;16.90;67.10
33508;DHT22;25568;37.410;-122.096;2023-02-01T05:59:13;17.00;67.70
33508;DHT22;25568;37.410;-122.096;2023-02-01T06:01:41;17.00;67.70
33508;DHT22;25568;37.410;-122.096;2023-02-01T06:04:10;17.10;67.90
33508;DHT22;25568;37.410;-122.096;2023-02-01T06:06:39;17.20;67.70
33508;DHT22;25568;37.410;-122.096;2023-02-01T06:09:10;17.20;67.90
33508;DHT22;25568;37.410;-122.096;2023-02-01T06:11:40;17.20;68.20
33508;DHT22;25568;37.410;-122.096;2023-02-01T06:14:09;17.40;68.30
33508;DHT22;25568;37.410;-122.096;2023-02-01T06:16:38;17.40;67.90
33508;DHT22;25568;37.410;-122.096;2023-02-01T06:19:07;17.40;68.50
33508;DHT22;25568;37.410;-122.096;2023-02-01T06:21:36;17.40;68.00
33508;DHT22;25568;37.410;-122.096;2023-02-01T06:24:06;17.40;67.90
33508;DHT22;25568;37.410;-122.096;2023-02-01T06:26:36;17.40;68.20
33508;DHT22;25568;37.410;-122.096;2023-02-01T06:29:05;17.30;68.10
33508;DHT22;25568;37.410;-122.096;2023-02-01T06:31:34;17.30;68.20
33508;DHT22;25568;37.410;-122.096;2023-02-01T06:34:03;17.30;68.60
33508;DHT22;25568;37.410;-122.096;2023-02-01T06:36:32;17.30;68.90
33508;DHT22;25568;37.410;-122.096;2023-02-01T06:39:02;17.30;68.70
33508;DHT22;25568;37.410;-122.096;2023-02-01T06:41:31;17.40;68.70
33508;DHT22;25568;37.410;-122.096;2023-02-01T06:44:03;17.50;69.00
33508;DHT22;25568;37.410;-122.096;2023-02-01T06:46:32;17.50;68.90
33508;DHT22;25568;37.410;-122.096;2023-02-01T06:49:00;17.50;69.00
33508;DHT22;25568;37.410;-122.096;2023-02-01T06:51:29;17.50;69.20
33508;DHT22;25568;37.410;-122.096;2023-02-01T06:53:58;17.40;69.20
33508;DHT22;25568;37.410;-122.096;2023-02-01T06:56:27;17.40;69.40
33508;DHT22;25568;37.410;-122.096;2023-02-01T06:58:58;17.30;69.40
33508;DHT22;25568;37.410;-122.096;2023-02-01T07:01:28;17.30;69.40
33508;DHT22;25568;37.410;-122.096;2023-02-01T07:03:57;17.30;69.50
33508;DHT22;25568;37.410;-122.096;2023-02-01T07:06:26;17.30;69.70
33508;DHT22;25568;37.410;-122.096;2023-02-01T07:08:55;17.30;69.80
33508;DHT22;25568;37.410;-122.096;2023-02-01T07:11:27;17.20;69.90
33508;DHT22;25568;37.410;-122.096;2023-02-01T07:13:55;17.20;70.00
33508;DHT22;25568;37.410;-122.096;2023-02-01T07:16:24;17.20;70.10
33508;DHT22;25568;37.410;-122.096;2023-02-01T07:18:55;17.20;70.20
33508;DHT22;25568;37.410;-122.096;2023-02-01T07:21:24;17.20;70.20
33508;DHT22;25568;37.410;-122.096;2023-02-01T07:23:54;17.20;70.20
33508;DHT22;25568;37.410;-122.096;2023-02-01T07:26:23;17.20;70.40
33508;DHT22;25568;37.410;-122.096;2023-02-01T07:28:52;17.20;70.50
33508;DHT22;25568;37.410;-122.096;2023-02-01T07:31:21;17.20;70.40
33508;DHT22;25568;37.410;-122.096;2023-02-01T07:33:54;17.10;70.40
33508;DHT22;25568;37.410;-122.096;2023-02-01T07:36:24;17.10;70.80
33508;DHT22;25568;37.410;-122.096;2023-02-01T07:38:53;17.20;70.90
33508;DHT22;25568;37.410;-122.096;2023-02-01T07:41:22;17.20;70.80
33508;DHT22;25568;37.410;-122.096;2023-02-01T07:43:53;17.20;70.80
33508;DHT22;25568;37.410;-122.096;2023-02-01T07:46:22;17.10;70.90
33508;DHT22;25568;37.410;-122.096;2023-02-01T07:48:51;17.10;71.00
33508;DHT22;25568;37.410;-122.096;2023-02-01T07:51:21;17.10;71.20
33508;DHT22;25568;37.410;-122.096;2023-02-01T07:53:50;17.10;71.70
33508;DHT22;25568;37.410;-122.096;2023-02-01T07:56:21;17.10;71.40
33508;DHT22;25568;37.410;-122.096;2023-02-01T07:58:53;17.10;71.50
33508;DHT22;25568;37.410;-122.096;2023-02-01T08:01:24;17.10;71.70
33508;DHT22;25568;37.410;-122.096;2023-02-01T08:03:54;17.10;71.60
33508;DHT22;25568;37.410;-122.096;2023-02-01T08:06:25;17.10;71.90
33508;DHT22;25568;37.410;-122.096;2023-02-01T08:08:54;17.00;71.70
33508;DHT22;25568;37.410;-122.096;2023-02-01T08:11:24;17.00;72.20
33508;DHT22;25568;37.410;-122.096;2023-02-01T08:13:54;17.00;72.00
33508;DHT22;25568;37.410;-122.096;2023-02-01T08:16:23;17.00;72.20
33508;DHT22;25568;37.410;-122.096;2023-02-01T08:18:52;17.00;72.40
33508;DHT22;25568;37.410;-122.096;2023-02-01T08:21:25;17.00;72.30
33508;DHT22;25568;37.410;-122.096;2023-02-01T08:24:06;17.00;72.60
33508;DHT22;25568;37.410;-122.096;2023-02-01T08:26:37;17.00;72.40
33508;DHT22;25568;37.410;-122.096;2023-02-01T08:29:07;17.00;72.80
33508;DHT22;25568;37.410;-122.096;2023-02-01T08:31:38;17.10;72.90
33508;DHT22;25568;37.410;-122.096;2023-02-01T08:34:09;17.00;72.80
33508;DHT22;25568;37.410;-122.096;2023-02-01T08:36:40;17.10;73.00
33508;DHT22;25568;37.410;-122.096;2023-02-01T08:39:10;17.00;72.90
33508;DHT22;25568;37.410;-122.096;2023-02-01T08:41:39;17.00;73.20
33508;DHT22;25568;37.410;-122.096;2023-02-01T08:44:08;17.00;72.90
33508;DHT22;25568;37.410;-122.096;2023-02-01T08:46:37;17.00;73.10
33508;DHT22;25568;37.410;-122.096;2023-02-01T08:49:06;17.00;73.00
33508;DHT22;25568;37.410;-122.096;2023-02-01T08:51:35;17.00;73.00
33508;DHT22;25568;37.410;-122.096;2023-02-01T08:54:06;17.00;73.10
33508;DHT22;25568;37.410;-122.096;2023-02-01T08:56:34;17.00;73.10
33508;DHT22;25568;37.410;-122.096;2023-02-01T08:59:03;17.00;73.30
33508;DHT22;25568;37.410;-122.096;2023-02-01T09:01:32;17.00;73.10
33508;DHT22;25568;37.410;-122.096;2023-02-01T09:04:01;17.00;73.10
33508;DHT22;25568;37.410;-122.096;2023-02-01T09:06:30;17.00;73.20
33508;DHT22;25568;37.410;-122.096;2023-02-01T09:08:59;17.00;73.00
33508;DHT22;25568;37.410;-122.096;2023-02-01T09:11:29;17.00;73.30
33508;DHT22;25568;37.410;-122.096;2023-02-01T09:13:58;17.00;73.10
33508;DHT22;25568;37.410;-122.096;2023-02-01T09:16:27;16.90;73.30
33508;DHT22;25568;37.410;-122.096;2023-02-01T09:18:56;17.00;73.20
33508;DHT22;25568;37.410;-122.096;2023-02-01T09:21:25;16.90;73.20
33508;DHT22;25568;37.410;-122.096;2023-02-01T09:23:53;16.90;73.50
33508;DHT22;25568;37.410;-122.096;2023-02-01T09:26:22;16.90;73.20
33508;DHT22;25568;37.410;-122.096;2023-02-01T09:28:53;16.90;73.50
33508;DHT22;25568;37.410;-122.096;2023-02-01T09:31:22;16.90;73.30
33508;DHT22;25568;37.410;-122.096;2023-02-01T09:33:51;16.90;73.30
33508;DHT22;25568;37.410;-122.096;2023-02-01T09:36:20;16.90;73.60
33508;DHT22;25568;37.410;-122.096;2023-02-01T09:38:50;16.90;73.40
33508;DHT22;25568;37.410;-122.096;2023-02-01T09:41:31;16.90;73.60
33508;DHT22;25568;37.410;-122.096;2023-02-01T09:44:11;16.90;73.50
33508;DHT22;25568;37.410;-122.096;2023-02-01T09:46:45;16.80;73.60
33508;DHT22;25568;37.410;-122.096;2023-02-01T09:49:18;16.80;73.60
33508;DHT22;25568;37.410;-122.096;2023-02-01T09:51:50;16.80;73.60
33508;DHT22;25568;37.410;-122.096;2023-02-01T09:54:22;16.80;73.80
33508;DHT22;25568;37.410;-122.096;2023-02-01T09:56:55;16.80;74.00
33508;DHT22;25568;37.410;-122.096;2023-02-01T09:59:31;16.80;74.10
33508;DHT22;25568;37.410;-122.096;2023-02-01T10:02:04;16.70;74.00
33508;DHT22;25568;37.410;-122.096;2023-02-01T10:04:36;16.70;74.10
33508;DHT22;25568;37.410;-122.096;2023-02-01T10:07:14;16.80;74.10
33508;DHT22;25568;37.410;-122.096;2023-02-01T10:09:54;16.90;73.90
33508;DHT22;25568;37.410;-122.096;2023-02-01T10:12:56;17.00;74.00
33508;DHT22;25568;37.410;-122.096;2023-02-01T10:15:48;17.00;74.00
33508;DHT22;25568;37.410;-122.096;2023-02-01T10:18:42;17.00;74.00
33508;DHT22;25568;37.410;-122.096;2023-02-01T10:21:23;17.10;73.90
33508;DHT22;25568;37.410;-122.096;2023-02-01T10:24:07;17.10;73.60
33508;DHT22;25568;37.410;-122.096;2023-02-01T10:26:45;17.20;73.80
33508;DHT22;25568;37.410;-122.096;2023-02-01T10:29:18;17.20;74.00
33508;DHT22;25568;37.410;-122.096;2023-02-01T10:31:49;17.10;73.60
33508;DHT22;25568;37.410;-122.096;2023-02-01T10:34:21;17.00;74.00
33508;DHT22;25568;37.410;-122.096;2023-02-01T10:37:00;17.00;74.00
33508;DHT22;25568;37.410;-122.096;2023-02-01T10:39:29;17.00;74.20
33508;DHT22;25568;37.410;-122.096;2023-02-01T10:41:58;16.90;73.90
33508;DHT22;25568;37.410;-122.096;2023-02-01T10:44:28;16.90;74.30
33508;DHT22;25568;37.410;-122.096;2023-02-01T10:47:00;16.90;74.50
33508;DHT22;25568;37.410;-122.096;2023-02-01T10:49:35;16.80;74.30
33508;DHT22;25568;37.410;-122.096;2023-02-01T10:52:12;16.90;74.50
33508;DHT22;25568;37.410;-122.096;2023-02-01T10:54:43;16.80;74.40
33508;DHT22;25568;37.410;-122.096;2023-02-01T10:57:21;16.90;74.80
33508;DHT22;25568;37.410;-122.096;2023-02-01T10:59:51;16.80;74.80
33508;DHT22;25568;37.410;-122.096;2023-02-01T11:02:26;16.80;74.90
33508;DHT22;25568;37.410;-122.096;2023-02-01T11:05:01;16.80;74.80
33508;DHT22;25568;37.410;-122.096;2023-02-01T11:07:32;16.80;74.80
33508;DHT22;25568;37.410;-122.096;2023-02-01T11:10:01;16.80;74.90
33508;DHT22;25568;37.410;-122.096;2023-02-01T11:12:32;16.80;74.80
33508;DHT22;25568;37.410;-122.096;2023-02-01T11:15:13;16.80;75.30
33508;DHT22;25568;37.410;-122.096;2023-02-01T11:17:45;16.70;75.00
33508;DHT22;25568;37.410;-122.096;2023-02-01T11:20:17;16.70;75.30
33508;DHT22;25568;37.410;-122.096;2023-02-01T11:22:48;16.70;75.10
33508;DHT22;25568;37.410;-122.096;2023-02-01T11:25:17;16.70;75.30
33508;DHT22;25568;37.410;-122.096;2023-02-01T11:27:47;16.70;75.40
33508;DHT22;25568;37.410;-122.096;2023-02-01T11:30:18;16.60;75.40
33508;DHT22;25568;37.410;-122.096;2023-02-01T11:32:51;16.60;75.50
33508;DHT22;25568;37.410;-122.096;2023-02-01T11:35:34;16.60;75.60
33508;DHT22;25568;37.410;-122.096;2023-02-01T11:38:15;16.60;75.60
33508;DHT22;25568;37.410;-122.096;2023-02-01T11:40:46;16.60;75.50
33508;DHT22;25568;37.410;-122.096;2023-02-01T11:43:22;16.60;75.70
33508;DHT22;25568;37.410;-122.096;2023-02-01T11:45:56;16.60;75.70
33508;DHT22;25568;37.410;-122.096;2023-02-01T11:48:28;16.60;75.50
33508;DHT22;25568;37.410;-122.096;2023-02-01T11:51:14;16.60;76.10
33508;DHT22;25568;37.410;-122.096;2023-02-01T11:54:01;16.60;75.70
33508;DHT22;25568;37.410;-122.096;2023-02-01T11:56:35;16.60;75.80
33508;DHT22;25568;37.410;-122.096;2023-02-01T11:59:23;16.70;75.90
33508;DHT22;25568;37.410;-122.096;2023-02-01T12:02:22;16.70;75.90
33508;DHT22;25568;37.410;-122.096;2023-02-01T12:05:20;16.70;76.10
33508;DHT22;25568;37.410;-122.096;2023-02-01T12:08:06;16.70;75.80
33508;DHT22;25568;37.410;-122.096;2023-02-01T12:10:47;16.70;75.70
33508;DHT22;25568;37.410;-122.096;2023-02-01T12:13:29;16.70;75.90
33508;DHT22;25568;37.410;-122.096;2023-02-01T12:16:10;16.70;75.90
33508;DHT22;25568;37.410;-122.096;2023-02-01T12:18:59;16.70;76.10
33508;DHT22;25568;37.410;-122.096;2023-02-01T12:21:59;16.70;76.60
33508;DHT22;25568;37.410;-122.096;2023-02-01T12:24:54;16.70;76.80
33508;DHT22;25568;37.410;-122.096;2023-02-01T12:27:46;16.70;76.70
33508;DHT22;25568;37.410;-122.096;2023-02-01T12:30:42;16.70;76.80
33508;DHT22;25568;37.410;-122.096;2023-02-01T12:33:21;16.70;76.80
33508;DHT22;25568;37.410;-122.096;2023-02-01T12:36:07;16.70;76.70
33508;DHT22;25568;37.410;-122.096;2023-02-01T12:38:51;16.70;76.80
33508;DHT22;25568;37.410;-122.096;2023-02-01T12:41:40;16.70;76.70
33508;DHT22;25568;37.410;-122.096;2023-02-01T12:44:17;16.60;76.60
33508;DHT22;25568;37.410;-122.096;2023-02-01T12:46:50;16.60;76.60
33508;DHT22;25568;37.410;-122.096;2023-02-01T12:49:27;16.60;76.80
33508;DHT22;25568;37.410;-122.096;2023-02-01T12:52:01;16.60;76.60
33508;DHT22;25568;37.410;-122.096;2023-02-01T12:54:36;16.60;76.70
33508;DHT22;25568;37.410;-122.096;2023-02-01T12:57:10;16.60;77.00
33508;DHT22;25568;37.410;-122.096;2023-02-01T12:59:44;16.60;76.70
33508;DHT22;25568;37.410;-122.096;2023-02-01T13:02:19;16.60;76.80
33508;DHT22;25568;37.410;-122.096;2023-02-01T13:04:58;16.70;76.80
33508;DHT22;25568;37.410;-122.096;2023-02-01T13:07:34;16.70;76.60
33508;DHT22;25568;37.410;-122.096;2023-02-01T13:10:14;16.70;76.50
33508;DHT22;25568;37.410;-122.096;2023-02-01T13:12:50;16.60;76.30
33508;DHT22;25568;37.410;-122.096;2023-02-01T13:15:24;16.60;76.40
33508;DHT22;25568;37.410;-122.096;2023-02-01T13:17:58;16.60;76.40
33508;DHT22;25568;37.410;-122.096;2023-02-01T13:20:31;16.50;76.30
33508;DHT22;25568;37.410;-122.096;2023-02-01T13:23:02;16.60;76.50
33508;DHT22;25568;37.410;-122.096;2023-02-01T13:25:37;16.60;76.60
33508;DHT22;25568;37.410;-122.096;2023-02-01T13:28:14;16.60;76.70
33508;DHT22;25568;37.410;-122.096;2023-02-01T13:33:55;16.50;76.70
33508;DHT22;25568;37.410;-122.096;2023-02-01T13:36:54;16.50;76.90
33508;DHT22;25568;37.410;-122.096;2023-02-01T13:39:48;16.50;77.00
33508;DHT22;25568;37.410;-122.096;2023-02-01T13:42:26;16.50;76.80
33508;DHT22;25568;37.410;-122.096;2023-02-01T13:44:58;16.50;76.60
33508;DHT22;25568;37.410;-122.096;2023-02-01T13:47:34;16.50;76.90
33508;DHT22;25568;37.410;-122.096;2023-02-01T13:50:16;16.40;76.90
33508;DHT22;25568;37.410;-122.096;2023-02-01T13:52:53;16.50;76.60
33508;DHT22;25568;37.410;-122.096;2023-02-01T13:55:31;16.70;76.30
33508;DHT22;25568;37.410;-122.096;2023-02-01T13:58:06;16.80;75.90
33508;DHT22;25568;37.410;-122.096;2023-02-01T14:00:40;16.70;75.80
33508;DHT22;25568;37.410;-122.096;2023-02-01T14:03:17;16.70;76.10
33508;DHT22;25568;37.410;-122.096;2023-02-01T14:06:01;16.60;76.40
33508;DHT22;25568;37.410;-122.096;2023-02-01T14:08:45;16.50;76.40
33508;DHT22;25568;37.410;-122.096;2023-02-01T14:11:38;16.50;76.90
33508;DHT22;25568;37.410;-122.096;2023-02-01T14:17:36;16.40;76.90
33508;DHT22;25568;37.410;-122.096;2023-02-01T14:20:38;16.40;76.90
33508;DHT22;25568;37.410;-122.096;2023-02-01T14:23:13;16.40;77.20
33508;DHT22;25568;37.410;-122.096;2023-02-01T14:25:43;16.40;77.20
33508;DHT22;25568;37.410;-122.096;2023-02-01T14:28:25;16.30;77.50
33508;DHT22;25568;37.410;-122.096;2023-02-01T14:30:57;16.40;77.30
33508;DHT22;25568;37.410;-122.096;2023-02-01T14:33:29;16.40;77.60
33508;DHT22;25568;37.410;-122.096;2023-02-01T14:36:05;16.30;77.40
33508;DHT22;25568;37.410;-122.096;2023-02-01T14:38:36;16.30;77.40
33508;DHT22;25568;37.410;-122.096;2023-02-01T14:41:18;16.30;77.80
33508;DHT22;25568;37.410;-122.096;2023-02-01T14:44:14;16.30;77.60
33508;DHT22;25568;37.410;-122.096;2023-02-01T14:49:55;16.30;77.70
33508;DHT22;25568;37.410;-122.096;2023-02-01T14:52:31;16.20;77.70
33508;DHT22;25568;37.410;-122.096;2023-02-01T14:55:05;16.30;77.70
33508;DHT22;25568;37.410;-122.096;2023-02-01T14:57:37;16.20;77.90
33508;DHT22;25568;37.410;-122.096;2023-02-01T15:00:18;16.20;78.10
33508;DHT22;25568;37.410;-122.096;2023-02-01T15:02:48;16.20;77.90
33508;DHT22;25568;37.410;-122.096;2023-02-01T15:05:30;16.30;78.40
33508;DHT22;25568;37.410;-122.096;2023-02-01T15:08:11;16.30;78.40
33508;DHT22;25568;37.410;-122.096;2023-02-01T15:10:44;16.40;77.90
33508;DHT22;25568;37.410;-122.096;2023-02-01T15:13:21;16.40;77.70
33508;DHT22;25568;37.410;-122.096;2023-02-01T15:16:05;16.40;76.60
33508;DHT22;25568;37.410;-122.096;2023-02-01T15:18:34;16.40;74.60
33508;DHT22;25568;37.410;-122.096;2023-02-01T15:21:05;16.30;74.50
33508;DHT22;25568;37.410;-122.096;2023-02-01T15:23:34;16.30;74.00
33508;DHT22;25568;37.410;-122.096;2023-02-01T15:26:03;16.30;73.70
33508;DHT22;25568;37.410;-122.096;2023-02-01T15:28:32;16.30;73.60
33508;DHT22;25568;37.410;-122.096;2023-02-01T15:31:03;16.30;73.60
33508;DHT22;25568;37.410;-122.096;2023-02-01T15:33:32;16.30;74.00
33508;DHT22;25568;37.410;-122.096;2023-02-01T15:36:11;16.20;74.10
33508;DHT22;25568;37.410;-122.096;2023-02-01T15:38:41;16.30;74.40
33508;DHT22;25568;37.410;-122.096;2023-02-01T15:41:13;16.20;74.50
33508;DHT22;25568;37.410;-122.096;2023-02-01T15:43:46;16.30;74.70
33508;DHT22;25568;37.410;-122.096;2023-02-01T15:46:19;16.30;74.00